Terminal Aerodrome Forecast
Issued by NWS Louisville, KY

Home | Current Version | Previous Version | Text Only | Print | Product List | Glossary On
Versions: 1 2 3 4 5 6 7 8 9 10 11 12 13 14 15 16 17 18
218
FTUS43 KLMK 011301 AAA
TAFSDF
TAF AMD
KSDF 011301Z 0113/0218 18007KT P6SM BKN009
     FM011400 18007KT P6SM SCT010 SCT040
     FM011600 24007KT P6SM SCT030 BKN040
     FM011900 25007KT P6SM VCTS BKN035CB
      TEMPO 0119/0123 3SM -TSRA BKN035CB
     FM012300 23007KT P6SM SCT040 SCT200=

USA.gov is the U.S. government's official web portal to all federal, state and local government web resources and services.